Time;durP1;ratioP1;P1;durP2;ratioP2;P2;SDS_P1;SDS_P2;PMS_P1;PMS_P2;Temp;Humidity;BMP_temperature;BMP_pressure;BME280_temperature;BME280_humidity;BME280_pressure;Samples;Min_cycle;Max_cycle;Signal;HPM_P1;HPM_P2
2021/09/15 00:02:19;;;;;;;27.17;25.37;;;21.60;81.90;;;;;;5059937;28;20458;-69
2021/09/15 00:04:46;;;;;;;26.73;25.10;;;21.60;81.90;;;;;;5053103;28;20475;-70
2021/09/15 00:07:13;;;;;;;27.17;25.57;;;21.60;81.90;;;;;;5059971;28;20447;-69
2021/09/15 00:09:39;;;;;;;27.23;25.63;;;21.60;82.00;;;;;;5053089;28;21113;-70
2021/09/15 00:12:08;;;;;;;27.87;26.30;;;21.60;82.00;;;;;;5061079;28;20541;-70
2021/09/15 00:14:35;;;;;;;27.27;25.60;;;21.60;82.00;;;;;;5049966;28;20481;-70
2021/09/15 00:17:02;;;;;;;27.43;25.83;;;21.60;82.00;;;;;;5047876;28;20455;-70
2021/09/15 00:19:29;;;;;;;27.57;25.80;;;21.60;81.80;;;;;;5055189;28;20479;-70
2021/09/15 00:21:56;;;;;;;26.97;25.27;;;21.60;81.90;;;;;;5057615;28;20540;-70
2021/09/15 00:24:23;;;;;;;27.03;25.50;;;21.60;82.00;;;;;;5051848;28;20459;-70
2021/09/15 00:26:50;;;;;;;27.00;25.40;;;21.60;82.00;;;;;;5053483;28;20455;-70
2021/09/15 00:29:18;;;;;;;27.03;25.10;;;21.60;82.20;;;;;;5051522;28;20493;-70
2021/09/15 00:31:45;;;;;;;27.50;25.80;;;21.50;82.70;;;;;;5057418;28;20479;-70
2021/09/15 00:34:12;;;;;;;27.37;25.77;;;21.50;82.80;;;;;;5058161;28;20474;-70
2021/09/15 00:36:39;;;;;;;27.37;25.77;;;21.50;82.80;;;;;;5059960;28;20809;-70
2021/09/15 00:39:06;;;;;;;27.00;25.50;;;21.50;82.60;;;;;;5053877;28;20483;-70
2021/09/15 00:41:33;;;;;;;26.53;25.03;;;21.50;82.50;;;;;;5051825;28;21191;-70
2021/09/15 00:44:01;;;;;;;28.00;26.30;;;21.60;82.60;;;;;;5051835;28;20532;-70
2021/09/15 00:46:30;;;;;;;26.90;25.27;;;21.60;82.60;;;;;;5058487;28;20562;-70
2021/09/15 00:48:57;;;;;;;26.93;25.27;;;21.60;82.50;;;;;;5051725;28;20833;-70
2021/09/15 00:51:24;;;;;;;26.80;25.20;;;21.60;82.60;;;;;;5059530;28;20454;-70
2021/09/15 00:53:51;;;;;;;27.07;25.53;;;21.60;82.50;;;;;;5060300;28;20474;-70
2021/09/15 00:56:18;;;;;;;27.90;26.03;;;21.60;82.40;;;;;;5057408;28;20986;-70
2021/09/15 00:58:45;;;;;;;27.40;25.80;;;21.60;82.70;;;;;;5048717;28;20481;-69
2021/09/15 01:01:12;;;;;;;27.23;25.63;;;21.50;82.90;;;;;;5048609;28;20463;-70
2021/09/15 01:03:41;;;;;;;27.03;25.43;;;21.40;83.20;;;;;;5055827;28;20481;-70
2021/09/15 01:06:08;;;;;;;27.50;25.80;;;21.40;83.30;;;;;;5047080;28;20467;-69
2021/09/15 01:08:35;;;;;;;27.60;25.80;;;21.40;83.60;;;;;;5053387;28;21111;-69
2021/09/15 01:11:03;;;;;;;27.20;25.70;;;21.40;83.70;;;;;;5065530;28;20460;-69
2021/09/15 01:13:32;;;;;;;27.00;25.30;;;21.40;83.60;;;;;;5061123;28;20450;-69
2021/09/15 01:15:59;;;;;;;27.90;26.20;;;21.40;83.60;;;;;;5051769;28;20989;-69
2021/09/15 01:18:26;;;;;;;27.83;25.97;;;21.50;83.50;;;;;;5055113;28;20458;-69
2021/09/15 01:20:55;;;;;;;27.33;25.40;;;21.50;83.50;;;;;;5055186;28;20465;-69
2021/09/15 01:23:21;;;;;;;27.60;25.87;;;21.60;83.60;;;;;;5047723;28;20462;-69
2021/09/15 01:25:48;;;;;;;27.40;25.70;;;21.50;84.00;;;;;;5056452;28;20448;-69
2021/09/15 01:28:15;;;;;;;28.10;26.30;;;21.40;84.20;;;;;;5058708;28;20450;-69
2021/09/15 01:30:43;;;;;;;27.40;25.67;;;21.50;84.30;;;;;;5049296;28;20478;-69
2021/09/15 01:33:14;;;;;;;27.70;25.90;;;21.40;84.50;;;;;;5049718;28;21109;-69
2021/09/15 01:35:42;;;;;;;27.93;26.10;;;21.40;84.50;;;;;;5050064;28;20502;-69
2021/09/15 01:38:11;;;;;;;27.10;25.50;;;21.40;84.70;;;;;;5055190;28;20465;-69
2021/09/15 01:40:38;;;;;;;27.13;25.47;;;21.40;84.80;;;;;;5054194;28;20504;-69
2021/09/15 01:43:05;;;;;;;26.80;25.27;;;21.40;84.70;;;;;;5049250;28;20801;-70
2021/09/15 01:45:32;;;;;;;27.33;25.57;;;21.30;84.90;;;;;;5050468;28;20549;-69
2021/09/15 01:47:59;;;;;;;28.40;26.40;;;21.30;85.00;;;;;;5051220;28;20446;-70
2021/09/15 01:50:26;;;;;;;27.57;25.77;;;21.30;85.20;;;;;;5057026;28;21036;-70
2021/09/15 01:52:53;;;;;;;27.90;26.13;;;21.30;85.40;;;;;;5062664;28;20933;-70
2021/09/15 01:55:24;;;;;;;27.67;25.70;;;21.20;85.70;;;;;;5051183;28;20474;-70
2021/09/15 01:57:51;;;;;;;26.90;25.10;;;21.30;85.40;;;;;;5055372;28;20451;-70
2021/09/15 02:00:19;;;;;;;27.77;25.87;;;21.30;85.50;;;;;;5062133;28;20497;-70
2021/09/15 02:02:47;;;;;;;27.13;25.40;;;21.30;85.50;;;;;;5064189;28;20447;-69
2021/09/15 02:05:14;;;;;;;27.50;25.70;;;21.20;85.70;;;;;;5051928;28;21063;-69
2021/09/15 02:07:41;;;;;;;26.57;24.87;;;21.20;85.70;;;;;;5059721;28;20461;-70
2021/09/15 02:10:10;;;;;;;27.30;25.13;;;21.20;85.70;;;;;;5059713;28;20841;-70
2021/09/15 02:12:39;;;;;;;28.57;26.47;;;21.20;85.60;;;;;;5060092;28;20465;-70
2021/09/15 02:15:08;;;;;;;26.87;25.20;;;21.20;85.50;;;;;;5049888;28;20513;-70
2021/09/15 02:17:36;;;;;;;27.63;25.93;;;21.20;85.40;;;;;;5050650;28;21076;-70
2021/09/15 02:20:03;;;;;;;27.50;25.70;;;21.30;85.30;;;;;;5051772;28;20478;-69
2021/09/15 02:22:30;;;;;;;27.33;25.57;;;21.30;84.70;;;;;;5059755;28;20460;-69
2021/09/15 02:24:57;;;;;;;27.43;25.67;;;21.30;84.80;;;;;;5059741;28;20451;-69
2021/09/15 02:27:24;;;;;;;27.77;26.13;;;21.20;85.20;;;;;;5055968;28;20462;-69
2021/09/15 02:29:52;;;;;;;28.07;26.37;;;21.10;85.80;;;;;;5050036;28;20481;-69
2021/09/15 02:32:19;;;;;;;27.73;25.90;;;21.10;85.90;;;;;;5059128;28;20511;-69
2021/09/15 02:34:47;;;;;;;27.60;25.53;;;21.10;85.60;;;;;;5051606;28;20479;-69
2021/09/15 02:37:14;;;;;;;27.07;25.47;;;21.20;85.10;;;;;;5061987;28;20458;-69
2021/09/15 02:39:41;;;;;;;27.63;25.93;;;21.20;85.00;;;;;;5054066;28;20565;-69
2021/09/15 02:42:08;;;;;;;28.23;26.43;;;21.20;85.00;;;;;;5054574;28;20450;-69
2021/09/15 02:44:35;;;;;;;27.27;25.50;;;21.20;84.80;;;;;;5050721;28;20455;-69
2021/09/15 02:47:04;;;;;;;28.00;26.20;;;21.20;84.90;;;;;;5058925;28;20463;-69
2021/09/15 02:49:31;;;;;;;27.70;26.00;;;21.20;84.80;;;;;;5050674;28;20477;-69
2021/09/15 02:51:58;;;;;;;28.30;26.40;;;21.20;84.70;;;;;;5058674;28;20450;-68
2021/09/15 02:54:25;;;;;;;28.73;26.90;;;21.20;84.70;;;;;;5061707;28;21093;-69
2021/09/15 02:56:53;;;;;;;27.23;25.53;;;21.30;84.60;;;;;;5050520;28;20542;-69
2021/09/15 02:59:20;;;;;;;28.67;26.77;;;21.20;84.60;;;;;;5061857;28;20521;-69
2021/09/15 03:01:47;;;;;;;27.63;25.60;;;21.30;84.70;;;;;;5066633;28;20562;-69
2021/09/15 03:04:15;;;;;;;28.40;26.40;;;21.30;84.40;;;;;;5052383;28;20547;-69
2021/09/15 03:06:42;;;;;;;28.50;26.77;;;21.30;84.40;;;;;;5062851;28;20458;-69
2021/09/15 03:09:10;;;;;;;30.17;28.00;;;21.20;84.70;;;;;;5061165;28;20478;-69
2021/09/15 03:11:36;;;;;;;29.13;27.10;;;21.20;84.90;;;;;;5048850;28;20455;-69
2021/09/15 03:14:03;;;;;;;29.57;27.17;;;21.20;84.60;;;;;;5050901;28;22144;-69
2021/09/15 03:16:31;;;;;;;28.00;26.30;;;21.20;84.40;;;;;;5055272;28;20500;-69
2021/09/15 03:18:58;;;;;;;29.73;27.77;;;21.20;84.40;;;;;;5052743;28;20479;-69
2021/09/15 03:21:26;;;;;;;29.07;27.30;;;21.30;84.40;;;;;;5048753;28;20526;-69
2021/09/15 03:23:53;;;;;;;28.53;26.63;;;21.30;84.20;;;;;;5058410;28;20453;-69
2021/09/15 03:26:20;;;;;;;29.10;27.30;;;21.30;84.30;;;;;;5065915;28;20466;-69
2021/09/15 03:28:47;;;;;;;28.93;27.10;;;21.30;84.60;;;;;;5057362;28;20478;-68
2021/09/15 03:31:14;;;;;;;29.07;27.27;;;21.20;84.70;;;;;;5049245;28;20936;-69
2021/09/15 03:33:40;;;;;;;29.30;27.40;;;21.20;84.70;;;;;;5051604;28;20501;-69
2021/09/15 03:36:07;;;;;;;28.33;26.63;;;21.30;84.50;;;;;;5059335;28;20480;-69
2021/09/15 03:38:36;;;;;;;30.17;28.10;;;21.30;84.50;;;;;;5055580;28;20463;-69
2021/09/15 03:41:03;;;;;;;32.20;29.90;;;21.30;84.60;;;;;;5052594;28;20534;-69
2021/09/15 03:43:29;;;;;;;28.30;26.60;;;21.30;84.80;;;;;;5048661;28;20465;-69
2021/09/15 03:45:56;;;;;;;30.10;28.20;;;21.30;84.80;;;;;;5049271;28;20451;-69
2021/09/15 03:48:23;;;;;;;28.70;26.80;;;21.30;84.40;;;;;;5059662;28;20799;-69
2021/09/15 03:50:50;;;;;;;27.40;25.80;;;21.20;84.60;;;;;;5049715;28;20466;-69
2021/09/15 03:53:17;;;;;;;29.40;27.07;;;21.20;84.60;;;;;;5058426;28;20557;-69
2021/09/15 03:55:46;;;;;;;28.70;26.90;;;21.30;84.40;;;;;;5055752;28;20481;-69
2021/09/15 03:58:12;;;;;;;30.00;28.30;;;21.20;84.70;;;;;;5057809;28;20450;-69
2021/09/15 04:00:39;;;;;;;29.80;27.80;;;21.20;84.80;;;;;;5060245;28;20492;-69
2021/09/15 04:03:07;;;;;;;28.50;26.63;;;21.20;85.00;;;;;;5059585;28;20463;-69
2021/09/15 04:05:34;;;;;;;28.07;26.37;;;21.20;85.00;;;;;;5052267;28;20458;-69
2021/09/15 04:08:00;;;;;;;29.00;27.07;;;21.20;85.10;;;;;;5057245;28;20455;-69
2021/09/15 04:10:27;;;;;;;30.00;28.10;;;21.20;85.30;;;;;;5049494;28;20485;-69
2021/09/15 04:12:56;;;;;;;32.13;30.10;;;21.20;85.50;;;;;;5056831;28;20965;-70
2021/09/15 04:15:22;;;;;;;29.40;27.50;;;21.10;85.90;;;;;;5052878;28;20585;-69
2021/09/15 04:17:49;;;;;;;33.57;31.20;;;21.10;85.80;;;;;;5056949;28;20472;-69
2021/09/15 04:20:16;;;;;;;29.43;27.60;;;21.20;85.70;;;;;;5056015;28;20479;-70
2021/09/15 04:22:44;;;;;;;30.87;28.77;;;21.10;85.70;;;;;;5050078;28;20463;-70
2021/09/15 04:33:25;;;;;;;32.23;30.23;;;21.00;86.40;;;;;;5055818;28;20794;-71
2021/09/15 04:35:52;;;;;;;29.07;27.20;;;21.00;86.50;;;;;;5051143;28;20477;-70
2021/09/15 04:38:19;;;;;;;30.47;28.67;;;21.00;86.30;;;;;;5058767;28;20463;-69
2021/09/15 04:40:46;;;;;;;31.57;29.40;;;21.00;86.60;;;;;;5056317;28;20515;-69
2021/09/15 04:43:15;;;;;;;28.50;26.80;;;21.00;86.90;;;;;;5057836;28;20458;-70
2021/09/15 04:45:42;;;;;;;31.80;29.80;;;20.90;87.40;;;;;;5051300;28;20553;-70
2021/09/15 04:48:09;;;;;;;30.10;28.10;;;20.90;87.70;;;;;;5056164;28;20944;-70
2021/09/15 04:50:36;;;;;;;29.77;27.83;;;20.90;87.90;;;;;;5056368;28;20480;-69
2021/09/15 04:53:02;;;;;;;30.30;28.20;;;20.80;88.30;;;;;;5054334;28;20450;-70
2021/09/15 04:55:32;;;;;;;28.40;26.60;;;20.80;88.30;;;;;;5052539;28;21286;-73
2021/09/15 04:57:59;;;;;;;30.95;28.92;;;20.80;88.70;;;;;;5050557;28;20974;-72
2021/09/15 05:00:27;;;;;;;29.83;27.93;;;20.80;88.80;;;;;;5049458;28;20239;-71
2021/09/15 05:02:54;;;;;;;29.43;27.07;;;20.80;88.90;;;;;;5049302;28;20456;-71
2021/09/15 05:05:22;;;;;;;30.47;28.50;;;20.80;88.90;;;;;;5056079;28;20841;-71
2021/09/15 05:07:49;;;;;;;30.10;28.13;;;20.70;89.10;;;;;;5060062;28;20455;-72
2021/09/15 05:10:15;;;;;;;29.37;27.57;;;20.70;89.40;;;;;;5049261;28;20560;-70
2021/09/15 05:12:43;;;;;;;28.97;26.80;;;20.70;89.70;;;;;;5052362;28;20454;-71
2021/09/15 05:15:10;;;;;;;31.37;29.17;;;20.70;89.80;;;;;;5060591;28;20992;-71
2021/09/15 05:17:39;;;;;;;29.87;27.97;;;20.70;89.60;;;;;;5060527;28;20475;-71
2021/09/15 05:20:07;;;;;;;29.57;27.63;;;20.70;89.60;;;;;;5055116;28;20575;-71
2021/09/15 05:22:33;;;;;;;29.00;27.20;;;20.80;89.50;;;;;;5064345;28;20553;-71
2021/09/15 05:25:00;;;;;;;29.37;27.33;;;20.80;89.40;;;;;;5058381;28;20515;-71
2021/09/15 05:27:27;;;;;;;28.40;26.70;;;20.80;89.50;;;;;;5058942;28;20550;-71
2021/09/15 05:29:54;;;;;;;29.53;27.60;;;20.80;89.50;;;;;;5054487;28;20593;-71
2021/09/15 05:32:21;;;;;;;28.27;26.37;;;20.90;89.20;;;;;;5053822;28;21090;-70
2021/09/15 05:34:49;;;;;;;28.73;26.83;;;20.90;89.30;;;;;;5058014;28;20451;-70
2021/09/15 05:37:16;;;;;;;27.87;26.20;;;20.90;88.90;;;;;;5059538;28;20474;-69
2021/09/15 05:39:43;;;;;;;29.23;27.30;;;20.90;89.10;;;;;;5060781;28;20575;-71
2021/09/15 05:42:10;;;;;;;27.73;25.87;;;21.00;88.90;;;;;;5055558;28;20449;-70
2021/09/15 05:44:37;;;;;;;29.63;27.60;;;21.00;88.90;;;;;;5054956;28;20561;-70
2021/09/15 05:47:04;;;;;;;31.13;29.20;;;20.90;88.90;;;;;;5057213;28;20533;-70
2021/09/15 05:49:31;;;;;;;26.87;25.07;;;20.90;89.10;;;;;;5051524;28;20475;-69
2021/09/15 05:51:59;;;;;;;27.77;26.13;;;21.00;89.20;;;;;;5059931;28;20571;-69
2021/09/15 05:54:29;;;;;;;27.77;25.87;;;21.00;89.10;;;;;;5067963;28;20458;-70
2021/09/15 05:56:56;;;;;;;28.67;26.83;;;21.10;88.80;;;;;;5063880;28;21071;-70
2021/09/15 05:59:23;;;;;;;28.77;26.97;;;21.10;88.80;;;;;;5050724;28;20507;-70
2021/09/15 06:01:50;;;;;;;30.70;28.70;;;21.10;89.10;;;;;;5051385;28;20490;-70
2021/09/15 06:04:17;;;;;;;29.73;27.90;;;21.10;89.80;;;;;;5050670;28;20474;-70
2021/09/15 06:06:44;;;;;;;30.40;27.80;;;21.10;89.80;;;;;;5050975;28;20482;-70
2021/09/15 06:09:12;;;;;;;31.10;29.10;;;21.00;90.20;;;;;;5058633;28;20843;-69
2021/09/15 06:11:39;;;;;;;28.93;27.07;;;21.10;90.30;;;;;;5067246;28;20461;-70
2021/09/15 06:14:08;;;;;;;29.77;27.77;;;21.00;90.40;;;;;;5052598;28;20963;-70
2021/09/15 06:16:35;;;;;;;28.77;26.60;;;21.10;89.90;;;;;;5054032;28;20489;-70
2021/09/15 06:19:02;;;;;;;27.90;26.00;;;21.10;89.70;;;;;;5058576;28;20872;-70
2021/09/15 06:21:29;;;;;;;27.93;26.13;;;21.10;89.90;;;;;;5066539;28;20471;-70
2021/09/15 06:23:56;;;;;;;29.43;27.33;;;21.10;89.60;;;;;;5055437;28;20455;-69
2021/09/15 06:26:25;;;;;;;29.70;27.80;;;21.10;89.60;;;;;;5067952;28;23152;-69
2021/09/15 06:28:52;;;;;;;28.77;26.70;;;21.10;89.40;;;;;;5052606;28;20478;-69
2021/09/15 06:31:19;;;;;;;27.50;25.83;;;21.00;89.60;;;;;;5062422;28;20481;-69
2021/09/15 06:33:47;;;;;;;30.30;28.33;;;21.00;89.90;;;;;;5054074;28;20517;-70
2021/09/15 06:36:14;;;;;;;27.50;25.43;;;21.00;89.80;;;;;;5055786;28;20456;-69
2021/09/15 06:38:42;;;;;;;31.57;29.43;;;21.20;89.30;;;;;;5055642;28;20490;-69
2021/09/15 06:41:09;;;;;;;30.27;28.30;;;21.20;88.80;;;;;;5051148;28;20447;-70
2021/09/15 06:43:38;;;;;;;30.50;28.40;;;21.10;89.00;;;;;;5058428;28;20550;-69
2021/09/15 06:46:05;;;;;;;29.27;27.43;;;21.20;88.90;;;;;;5048999;28;20487;-69
2021/09/15 06:48:33;;;;;;;29.83;27.70;;;21.20;88.90;;;;;;5061697;28;20404;-69
2021/09/15 06:50:59;;;;;;;29.43;27.63;;;21.30;88.60;;;;;;5049489;28;20223;-70
2021/09/15 06:53:26;;;;;;;30.60;28.67;;;21.20;88.90;;;;;;5055543;28;20463;-70
2021/09/15 06:55:54;;;;;;;29.43;27.63;;;21.30;88.60;;;;;;5050833;28;20506;-69
2021/09/15 06:58:21;;;;;;;31.10;29.13;;;21.30;88.50;;;;;;5064041;28;20464;-70
2021/09/15 07:00:49;;;;;;;28.90;27.10;;;21.30;88.60;;;;;;5062544;28;21022;-70
2021/09/15 07:03:16;;;;;;;29.73;27.73;;;21.30;88.40;;;;;;5062094;28;20459;-70
2021/09/15 07:05:45;;;;;;;28.80;27.10;;;21.30;88.50;;;;;;5050391;28;20553;-70
2021/09/15 07:08:11;;;;;;;30.63;28.83;;;21.30;88.70;;;;;;5052747;28;20462;-70
2021/09/15 07:10:42;;;;;;;28.83;26.80;;;21.30;88.70;;;;;;5055303;28;20485;-70
2021/09/15 07:13:09;;;;;;;29.70;27.87;;;21.30;89.10;;;;;;5056771;28;20474;-70
2021/09/15 07:15:36;;;;;;;29.87;28.07;;;21.20;89.50;;;;;;5051045;28;20456;-70
2021/09/15 07:18:06;;;;;;;29.17;27.17;;;21.20;89.50;;;;;;5061023;28;20458;-70
2021/09/15 07:20:34;;;;;;;30.10;28.10;;;21.20;89.40;;;;;;5053559;28;20566;-70
2021/09/15 07:23:01;;;;;;;29.10;27.30;;;21.20;89.50;;;;;;5061093;28;20462;-70
2021/09/15 07:25:28;;;;;;;30.13;27.93;;;21.20;89.80;;;;;;5061850;28;20454;-69
2021/09/15 07:27:56;;;;;;;30.50;28.10;;;21.20;89.60;;;;;;5068117;28;20454;-70
2021/09/15 07:30:23;;;;;;;30.50;28.40;;;21.20;89.90;;;;;;5069398;28;20473;-74
2021/09/15 07:32:50;;;;;;;28.27;26.47;;;21.10;89.80;;;;;;5058257;28;20967;-70
2021/09/15 07:35:19;;;;;;;30.67;28.77;;;21.10;90.00;;;;;;5051834;28;20462;-70
2021/09/15 07:37:46;;;;;;;30.63;28.53;;;21.10;90.00;;;;;;5057544;28;20474;-70
2021/09/15 07:40:14;;;;;;;30.70;28.60;;;21.10;90.10;;;;;;5056229;28;20467;-71
2021/09/15 07:42:42;;;;;;;29.37;27.23;;;21.10;90.40;;;;;;5053933;28;20464;-70
2021/09/15 07:45:12;;;;;;;29.03;27.13;;;21.20;90.20;;;;;;5053879;28;20504;-70
2021/09/15 07:47:39;;;;;;;29.30;27.40;;;21.30;90.00;;;;;;5062774;28;20508;-71
2021/09/15 07:50:07;;;;;;;29.00;27.10;;;21.30;89.40;;;;;;5062653;28;20478;-71
2021/09/15 07:52:36;;;;;;;28.20;26.50;;;21.40;88.70;;;;;;5054411;28;20477;-70
2021/09/15 07:55:05;;;;;;;27.73;25.93;;;21.40;87.60;;;;;;5061804;28;20568;-71
2021/09/15 07:57:32;;;;;;;28.43;26.23;;;21.50;87.50;;;;;;5052838;28;20557;-71
2021/09/15 07:59:59;;;;;;;28.00;25.97;;;21.50;87.00;;;;;;5061925;28;20477;-70
2021/09/15 08:02:26;;;;;;;26.37;24.77;;;21.60;87.00;;;;;;5052527;28;20457;-71
2021/09/15 08:04:53;;;;;;;26.90;25.00;;;21.60;86.80;;;;;;5054045;28;20471;-71
2021/09/15 08:07:20;;;;;;;27.60;25.70;;;21.80;86.50;;;;;;5056026;28;20454;-70
2021/09/15 08:09:48;;;;;;;28.47;26.87;;;21.90;85.70;;;;;;5058828;28;20968;-70
2021/09/15 08:12:15;;;;;;;28.60;26.10;;;21.90;85.60;;;;;;5053268;28;20542;-70
2021/09/15 08:14:42;;;;;;;28.83;26.93;;;22.00;85.40;;;;;;5056704;28;20563;-71
2021/09/15 08:17:09;;;;;;;25.97;24.50;;;22.00;84.90;;;;;;5052346;28;20570;-70
2021/09/15 08:19:36;;;;;;;26.87;25.27;;;22.00;84.50;;;;;;5055937;28;20553;-71
2021/09/15 08:22:03;;;;;;;28.67;26.47;;;22.00;84.70;;;;;;5049465;28;20450;-71
2021/09/15 08:24:30;;;;;;;28.70;26.80;;;22.00;85.00;;;;;;5054730;28;20534;-71
2021/09/15 08:26:58;;;;;;;27.53;25.83;;;22.00;85.20;;;;;;5067336;28;20438;-70
2021/09/15 08:29:25;;;;;;;26.70;25.10;;;22.10;84.90;;;;;;5052288;28;20490;-71
2021/09/15 08:31:52;;;;;;;26.70;24.90;;;22.10;84.90;;;;;;5063928;28;20543;-70
2021/09/15 08:34:19;;;;;;;27.97;26.27;;;22.10;85.20;;;;;;5067464;28;20562;-70
2021/09/15 08:36:46;;;;;;;27.33;25.73;;;22.10;85.30;;;;;;5050103;28;20984;-70
2021/09/15 08:39:13;;;;;;;28.80;26.70;;;22.10;85.20;;;;;;5057221;28;20486;-71
2021/09/15 08:41:41;;;;;;;26.87;25.20;;;22.20;85.20;;;;;;5047432;28;20455;-70
2021/09/15 08:44:09;;;;;;;26.07;24.37;;;22.30;84.60;;;;;;5055727;28;20459;-70
2021/09/15 08:46:38;;;;;;;29.13;27.23;;;22.40;84.70;;;;;;5050406;28;20459;-70
2021/09/15 08:49:06;;;;;;;27.67;25.90;;;22.40;84.50;;;;;;5060632;28;20491;-70
2021/09/15 08:51:34;;;;;;;30.33;28.20;;;22.30;84.80;;;;;;5046624;28;20451;-71
2021/09/15 08:54:01;;;;;;;29.90;27.80;;;22.20;85.20;;;;;;5060768;28;20472;-71
2021/09/15 08:56:28;;;;;;;31.23;29.23;;;22.20;85.70;;;;;;5064114;28;20484;-70
2021/09/15 08:58:55;;;;;;;29.27;27.50;;;22.20;85.20;;;;;;5061784;28;20485;-70
2021/09/15 09:01:25;;;;;;;28.97;27.27;;;22.20;85.40;;;;;;5053301;28;20463;-71
2021/09/15 09:03:54;;;;;;;29.10;27.20;;;22.20;85.30;;;;;;5051977;28;20642;-71
2021/09/15 09:06:22;;;;;;;30.80;28.87;;;22.10;85.70;;;;;;5053554;28;20546;-71
2021/09/15 09:08:53;;;;;;;29.43;27.20;;;22.20;85.50;;;;;;5059003;28;20479;-70
2021/09/15 09:11:21;;;;;;;31.43;29.30;;;22.10;85.60;;;;;;5052846;28;20560;-70
2021/09/15 09:13:50;;;;;;;28.17;26.47;;;22.10;85.40;;;;;;5056821;28;20465;-70
2021/09/15 09:16:18;;;;;;;30.97;28.80;;;22.10;84.90;;;;;;5051597;28;20467;-71
2021/09/15 09:19:01;;;;;;;30.73;28.57;;;22.00;85.20;;;;;;5055279;28;20970;-71
2021/09/15 09:21:29;;;;;;;28.10;26.30;;;22.00;85.20;;;;;;5051771;28;20542;-74
2021/09/15 09:23:57;;;;;;;30.10;27.70;;;22.00;85.50;;;;;;5058054;28;20458;-71
2021/09/15 09:26:25;;;;;;;29.53;27.73;;;21.90;84.80;;;;;;5058206;28;20446;-71
2021/09/15 09:28:52;;;;;;;27.40;25.80;;;21.90;84.40;;;;;;5065863;28;20498;-70
2021/09/15 09:31:19;;;;;;;28.27;26.60;;;21.80;84.40;;;;;;5057350;28;20836;-72
2021/09/15 09:33:46;;;;;;;29.07;27.17;;;21.80;84.50;;;;;;5057298;28;20600;-72
2021/09/15 09:36:14;;;;;;;28.00;26.20;;;21.80;84.50;;;;;;5059267;28;20459;-72
2021/09/15 09:38:43;;;;;;;26.67;25.17;;;21.70;84.40;;;;;;5059935;28;20524;-72
2021/09/15 09:41:12;;;;;;;26.87;25.27;;;21.70;84.40;;;;;;5053669;28;20473;-73
2021/09/15 09:43:41;;;;;;;29.70;27.90;;;21.70;84.60;;;;;;5051628;28;20454;-72
2021/09/15 09:46:10;;;;;;;29.60;27.60;;;21.70;84.80;;;;;;5056047;28;20540;-71
2021/09/15 09:48:44;;;;;;;30.03;28.17;;;21.70;85.10;;;;;;5057381;28;20552;-71
2021/09/15 09:51:29;;;;;;;28.33;26.53;;;21.90;84.80;;;;;;5050603;28;20465;-71
2021/09/15 09:54:18;;;;;;;32.07;29.67;;;22.00;84.30;;;;;;5056451;28;20512;-72
2021/09/15 09:56:47;;;;;;;31.10;29.20;;;22.10;84.40;;;;;;5057245;28;21000;-71
2021/09/15 09:59:15;;;;;;;29.83;27.93;;;22.20;83.90;;;;;;5051670;28;20565;-72
2021/09/15 10:01:44;;;;;;;30.10;28.30;;;22.40;83.70;;;;;;5063747;28;20554;-72
2021/09/15 10:04:11;;;;;;;28.30;26.60;;;22.50;83.20;;;;;;5051582;28;20463;-72
2021/09/15 10:06:41;;;;;;;29.87;28.00;;;22.70;82.30;;;;;;5054617;28;20482;-71
2021/09/15 10:09:08;;;;;;;30.87;28.97;;;22.90;81.60;;;;;;5054267;28;20510;-71
2021/09/15 10:11:36;;;;;;;29.23;27.30;;;23.00;81.40;;;;;;5054856;28;20648;-71
2021/09/15 10:14:05;;;;;;;30.30;28.40;;;23.30;80.70;;;;;;5060460;28;21055;-73
2021/09/15 10:16:36;;;;;;;30.90;29.00;;;23.50;80.50;;;;;;5054935;28;20458;-73
2021/09/15 10:19:07;;;;;;;29.20;27.40;;;23.70;79.80;;;;;;5062029;28;20497;-72
2021/09/15 10:21:36;;;;;;;30.03;28.10;;;24.00;79.00;;;;;;5052032;28;20823;-71
2021/09/15 10:24:05;;;;;;;30.30;28.50;;;24.10;78.60;;;;;;5051219;28;20450;-72
2021/09/15 10:26:35;;;;;;;31.63;29.60;;;24.20;78.20;;;;;;5056937;28;20496;-72
2021/09/15 10:29:29;;;;;;;32.00;30.00;;;24.40;77.30;;;;;;5057958;28;20557;-72
2021/09/15 10:32:07;;;;;;;29.50;27.73;;;24.60;77.40;;;;;;5049656;28;20963;-73
2021/09/15 10:34:53;;;;;;;30.10;28.27;;;24.70;76.70;;;;;;5049538;28;21141;-72
2021/09/15 10:37:54;;;;;;;33.80;31.60;;;24.80;76.50;;;;;;5056720;28;20474;-72
2021/09/15 10:40:37;;;;;;;32.07;29.87;;;24.90;76.00;;;;;;5054363;28;20548;-72
2021/09/15 10:43:05;;;;;;;32.30;30.20;;;24.90;76.40;;;;;;5056089;28;20454;-72
2021/09/15 10:45:33;;;;;;;32.50;30.50;;;24.80;76.30;;;;;;5056542;28;21200;-71
2021/09/15 10:48:14;;;;;;;31.97;30.07;;;24.90;76.10;;;;;;5054770;28;20461;-71
2021/09/15 10:50:52;;;;;;;31.00;28.90;;;24.90;76.30;;;;;;5054203;28;20475;-71
2021/09/15 10:53:22;;;;;;;33.17;31.13;;;24.80;76.00;;;;;;5056629;28;21064;-71
2021/09/15 10:55:57;;;;;;;31.40;29.40;;;24.70;76.10;;;;;;5058519;28;21255;-72
2021/09/15 10:58:29;;;;;;;32.47;30.30;;;24.60;76.60;;;;;;5057800;28;20481;-71
2021/09/15 11:00:57;;;;;;;31.60;29.40;;;24.40;77.00;;;;;;5057508;28;20474;-73
2021/09/15 11:03:31;;;;;;;32.87;30.97;;;24.40;77.50;;;;;;5059026;28;20561;-74
2021/09/15 11:05:59;;;;;;;30.33;28.63;;;24.40;77.40;;;;;;5056982;28;21323;-73
2021/09/15 11:08:37;;;;;;;29.97;28.20;;;24.60;77.00;;;;;;5054729;28;21268;-73
2021/09/15 11:11:07;;;;;;;30.40;28.60;;;24.70;76.80;;;;;;5056183;28;20458;-73
2021/09/15 11:13:57;;;;;;;30.20;28.17;;;24.90;76.50;;;;;;5057918;28;20462;-74
2021/09/15 11:16:30;;;;;;;33.53;31.33;;;25.00;75.90;;;;;;5054264;28;20458;-74
2021/09/15 11:18:59;;;;;;;32.80;30.70;;;25.10;76.00;;;;;;5058583;28;21093;-74
2021/09/15 11:21:29;;;;;;;30.53;28.50;;;25.20;76.10;;;;;;5056898;28;20462;-74
2021/09/15 11:23:58;;;;;;;30.10;28.30;;;25.40;75.00;;;;;;5059202;28;20537;-74
2021/09/15 11:26:42;;;;;;;31.87;29.97;;;25.40;74.80;;;;;;5055044;28;20538;-73
2021/09/15 11:29:09;;;;;;;31.50;29.70;;;25.60;74.50;;;;;;5058702;28;20545;-75
2021/09/15 11:31:38;;;;;;;31.00;29.20;;;25.50;74.80;;;;;;5055470;28;20455;-74
2021/09/15 11:34:06;;;;;;;31.17;29.37;;;25.50;75.00;;;;;;5058490;28;20532;-77
2021/09/15 11:36:37;;;;;;;31.40;29.50;;;25.60;74.70;;;;;;5058453;28;20468;-76
2021/09/15 11:39:05;;;;;;;32.17;30.27;;;25.50;74.60;;;;;;5054729;28;20569;-74
2021/09/15 11:41:33;;;;;;;31.67;29.77;;;25.50;74.70;;;;;;5055292;28;20481;-74
2021/09/15 11:44:01;;;;;;;31.90;30.10;;;25.50;74.60;;;;;;5057470;28;20462;-72
2021/09/15 11:46:34;;;;;;;30.57;28.77;;;25.50;74.70;;;;;;5056759;28;20465;-71
2021/09/15 11:49:01;;;;;;;30.53;28.40;;;25.30;75.00;;;;;;5057945;28;20485;-71
2021/09/15 11:51:30;;;;;;;31.00;29.00;;;25.20;75.60;;;;;;5059374;28;20556;-71
2021/09/15 11:54:01;;;;;;;29.90;27.80;;;25.10;76.00;;;;;;5056822;28;20482;-72
2021/09/15 11:56:32;;;;;;;32.63;30.60;;;25.00;76.00;;;;;;5059340;28;20489;-70
2021/09/15 11:59:01;;;;;;;30.27;28.47;;;24.90;76.20;;;;;;5056384;28;20580;-73
2021/09/15 12:01:32;;;;;;;33.20;31.03;;;24.90;76.40;;;;;;5053514;28;20471;-71
2021/09/15 12:04:03;;;;;;;32.17;30.03;;;24.80;76.50;;;;;;5053849;28;20469;-72
2021/09/15 12:06:32;;;;;;;31.60;29.80;;;24.80;76.60;;;;;;5056053;28;20574;-72
2021/09/15 12:08:59;;;;;;;30.23;28.00;;;24.80;76.70;;;;;;5055453;28;20479;-71
2021/09/15 12:11:31;;;;;;;31.00;29.10;;;24.80;76.60;;;;;;5052459;28;20495;-72
2021/09/15 12:13:59;;;;;;;31.97;29.67;;;24.80;76.50;;;;;;5051396;28;20462;-73
2021/09/15 12:16:29;;;;;;;33.10;31.00;;;24.90;76.30;;;;;;5061228;28;20462;-73
2021/09/15 12:18:58;;;;;;;31.97;29.87;;;24.90;76.50;;;;;;5050507;28;20584;-72
2021/09/15 12:21:26;;;;;;;29.50;27.50;;;24.80;76.80;;;;;;5061776;28;20467;-72
2021/09/15 12:24:02;;;;;;;31.10;29.20;;;24.80;76.60;;;;;;5052329;28;20983;-72
2021/09/15 12:26:29;;;;;;;30.60;28.70;;;24.60;76.80;;;;;;5056200;28;20561;-72
2021/09/15 12:29:07;;;;;;;31.33;29.33;;;24.50;77.20;;;;;;5054015;28;20605;-71
2021/09/15 12:31:49;;;;;;;32.47;30.23;;;24.50;77.30;;;;;;5059431;28;20455;-72
2021/09/15 12:34:18;;;;;;;31.80;29.83;;;24.50;77.40;;;;;;5054559;28;20458;-71
2021/09/15 12:36:45;;;;;;;32.60;30.60;;;24.50;77.20;;;;;;5058118;28;20945;-72
2021/09/15 12:39:17;;;;;;;33.07;31.17;;;24.50;77.40;;;;;;5057222;28;20474;-72
2021/09/15 12:41:55;;;;;;;29.90;28.10;;;24.60;77.30;;;;;;5054279;28;20458;-72
2021/09/15 12:44:26;;;;;;;30.80;28.90;;;24.50;77.40;;;;;;5054158;28;20473;-72